Terminal Aerodrome Forecast
Issued by NWS Brownsville, TX

Home | Current Version | Previous Version | Text Only | Print | Product List | Glossary On
Versions: 1 2 3 4 5 6 7 8 9 10 11 12 13
203
FTUS44 KBRO 222320
TAFBRO
TAF
KBRO 222320Z 2300/2324 13014KT P6SM FEW030
     FM230300 11005KT P6SM SCT250
     FM231800 12010KT P6SM VCSH SCT025 BKN050=

USA.gov is the U.S. government's official web portal to all federal, state and local government web resources and services.